Country
Station

 

Weather  for  Kramfors Flygplats  -  Sweden    Sweden

  
10 °C (50 °F)
    
 
 

Current METAR for Kramfors Flygplats is :

ESNK 180950Z AUTO 01005KT 9999 FEW074/// BKN090/// OVC140/// 10/05 Q1010

 

This is a report for Kramfors Flygplats - Sweden.
 
The report was made 23 minutes ago, at 09:50 UTC .
The wind was blowing at a speed of 2.6 meters per second (5.8 miles per hour) from north (010°).
 
The temperature was 10 °C (50 °F), with a dew-point at 5 °C (41 °F).
The atmospheric pressure was 1010 hPa (29.83 inHg).
The relative humidity was 71.0%.
 
The overall visibility was greater than 10 kilometers (6.2 miles).
 

 
 
 
 

Country :   A   B   C   D   E   F   G   H   I   J   K   L   M   N   O   P   Q   R   S   T   U   V   W   Y   Z

 

Site Info  |  Disclaimer  |  Credits  |  Privacy
Contact us  |  Add to favorites
© 2013-2019 METARs - All rights reserved